sensor_id;sensor_type;location;lat;lon;timestamp;pressure;altitude;pressure_sealevel;temperature;humidity
8140;BME280;4111;50.972;7.072;2022-09-20T00:01:14;101700.28;;;12.85;93.05
8140;BME280;4111;50.972;7.072;2022-09-20T00:03:44;101692.94;;;12.74;93.23
8140;BME280;4111;50.972;7.072;2022-09-20T00:06:14;101693.19;;;12.48;94.02
8140;BME280;4111;50.972;7.072;2022-09-20T00:08:41;101700.78;;;12.46;94.54
8140;BME280;4111;50.972;7.072;2022-09-20T00:11:14;101704.75;;;12.32;95.09
8140;BME280;4111;50.972;7.072;2022-09-20T00:13:42;101701.31;;;12.25;95.78
8140;BME280;4111;50.972;7.072;2022-09-20T00:16:12;101701.09;;;12.26;95.78
8140;BME280;4111;50.972;7.072;2022-09-20T00:18:39;101698.38;;;12.26;96.09
8140;BME280;4111;50.972;7.072;2022-09-20T00:21:06;101698.25;;;12.21;96.47
8140;BME280;4111;50.972;7.072;2022-09-20T00:23:32;101692.44;;;12.18;96.64
8140;BME280;4111;50.972;7.072;2022-09-20T00:26:02;101700.78;;;12.04;97.09
8140;BME280;4111;50.972;7.072;2022-09-20T00:28:30;101701.38;;;12.06;97.32
8140;BME280;4111;50.972;7.072;2022-09-20T00:30:57;101702.72;;;12.16;97.15
8140;BME280;4111;50.972;7.072;2022-09-20T00:33:24;101703.91;;;12.20;96.62
8140;BME280;4111;50.972;7.072;2022-09-20T00:36:11;101708.41;;;12.14;96.80
8140;BME280;4111;50.972;7.072;2022-09-20T00:38:37;101701.16;;;12.08;97.14
8140;BME280;4111;50.972;7.072;2022-09-20T00:41:04;101699.28;;;12.08;97.23
8140;BME280;4111;50.972;7.072;2022-09-20T00:43:39;101705.06;;;12.12;97.46
8140;BME280;4111;50.972;7.072;2022-09-20T00:46:22;101698.81;;;12.12;97.83
8140;BME280;4111;50.972;7.072;2022-09-20T00:48:52;101693.25;;;12.18;98.03
8140;BME280;4111;50.972;7.072;2022-09-20T00:51:26;101696.56;;;12.20;98.19
8140;BME280;4111;50.972;7.072;2022-09-20T00:53:54;101705.81;;;12.19;98.60
8140;BME280;4111;50.972;7.072;2022-09-20T00:56:28;101704.41;;;12.17;98.48
8140;BME280;4111;50.972;7.072;2022-09-20T00:59:19;101701.66;;;12.17;98.61
8140;BME280;4111;50.972;7.072;2022-09-20T01:01:50;101704.50;;;12.22;98.52
8140;BME280;4111;50.972;7.072;2022-09-20T01:04:18;101713.75;;;12.21;98.28
8140;BME280;4111;50.972;7.072;2022-09-20T01:06:48;101708.31;;;12.21;98.36
8140;BME280;4111;50.972;7.072;2022-09-20T01:09:16;101709.25;;;12.15;98.84
8140;BME280;4111;50.972;7.072;2022-09-20T01:11:43;101699.75;;;12.05;99.13
8140;BME280;4111;50.972;7.072;2022-09-20T01:14:12;101701.28;;;12.01;99.59
8140;BME280;4111;50.972;7.072;2022-09-20T01:16:40;101701.13;;;11.96;99.76
8140;BME280;4111;50.972;7.072;2022-09-20T01:19:33;101702.81;;;11.97;100.00
8140;BME280;4111;50.972;7.072;2022-09-20T01:22:05;101706.47;;;11.91;100.00
8140;BME280;4111;50.972;7.072;2022-09-20T01:24:48;101704.16;;;11.88;100.00
8140;BME280;4111;50.972;7.072;2022-09-20T01:27:40;101698.91;;;12.05;100.00
8140;BME280;4111;50.972;7.072;2022-09-20T01:30:08;101703.88;;;12.08;100.00
8140;BME280;4111;50.972;7.072;2022-09-20T01:32:56;101708.66;;;12.13;100.00
8140;BME280;4111;50.972;7.072;2022-09-20T01:35:26;101704.63;;;12.15;100.00
8140;BME280;4111;50.972;7.072;2022-09-20T01:38:18;101694.09;;;12.19;100.00
8140;BME280;4111;50.972;7.072;2022-09-20T01:41:14;101701.72;;;11.98;100.00
8140;BME280;4111;50.972;7.072;2022-09-20T01:44:10;101704.34;;;11.93;100.00
8140;BME280;4111;50.972;7.072;2022-09-20T01:46:41;101700.41;;;11.89;100.00
8140;BME280;4111;50.972;7.072;2022-09-20T01:49:19;101703.25;;;11.94;100.00
8140;BME280;4111;50.972;7.072;2022-09-20T02:09:17;101710.53;;;12.24;100.00
8140;BME280;4111;50.972;7.072;2022-09-20T02:15:10;101710.91;;;12.27;100.00
8140;BME280;4111;50.972;7.072;2022-09-20T02:18:00;101708.91;;;12.23;100.00
8140;BME280;4111;50.972;7.072;2022-09-20T02:23:34;101704.41;;;12.17;100.00
8140;BME280;4111;50.972;7.072;2022-09-20T02:29:23;101708.75;;;12.18;100.00
8140;BME280;4111;50.972;7.072;2022-09-20T02:46:17;101707.56;;;12.14;100.00
8140;BME280;4111;50.972;7.072;2022-09-20T02:48:54;101702.81;;;11.97;100.00
8140;BME280;4111;50.972;7.072;2022-09-20T02:56:44;101695.50;;;11.79;100.00
8140;BME280;4111;50.972;7.072;2022-09-20T02:59:34;101693.38;;;11.81;100.00
8140;BME280;4111;50.972;7.072;2022-09-20T03:02:12;101697.59;;;11.96;100.00
8140;BME280;4111;50.972;7.072;2022-09-20T03:18:17;101699.19;;;12.15;100.00
8140;BME280;4111;50.972;7.072;2022-09-20T03:20:54;101691.38;;;12.19;100.00
8140;BME280;4111;50.972;7.072;2022-09-20T03:31:40;101702.53;;;12.29;100.00
8140;BME280;4111;50.972;7.072;2022-09-20T03:34:21;101699.31;;;12.32;100.00
8140;BME280;4111;50.972;7.072;2022-09-20T03:37:14;101709.50;;;12.25;100.00
8140;BME280;4111;50.972;7.072;2022-09-20T03:42:29;101702.75;;;12.27;100.00
8140;BME280;4111;50.972;7.072;2022-09-20T03:45:14;101702.03;;;12.32;100.00
8140;BME280;4111;50.972;7.072;2022-09-20T03:47:58;101696.00;;;12.30;100.00
8140;BME280;4111;50.972;7.072;2022-09-20T03:50:36;101688.75;;;12.24;100.00
8140;BME280;4111;50.972;7.072;2022-09-20T03:55:51;101689.28;;;12.33;100.00
8140;BME280;4111;50.972;7.072;2022-09-20T04:01:32;101682.97;;;12.32;100.00
8140;BME280;4111;50.972;7.072;2022-09-20T04:04:10;101692.59;;;12.35;100.00
8140;BME280;4111;50.972;7.072;2022-09-20T04:06:52;101695.53;;;12.33;100.00
8140;BME280;4111;50.972;7.072;2022-09-20T04:12:21;101695.16;;;12.29;100.00
8140;BME280;4111;50.972;7.072;2022-09-20T04:15:00;101696.47;;;12.27;100.00
8140;BME280;4111;50.972;7.072;2022-09-20T04:17:56;101693.41;;;12.35;100.00
8140;BME280;4111;50.972;7.072;2022-09-20T04:20:34;101697.31;;;12.39;100.00
8140;BME280;4111;50.972;7.072;2022-09-20T04:23:11;101696.25;;;12.40;100.00
8140;BME280;4111;50.972;7.072;2022-09-20T04:25:41;101698.41;;;12.38;100.00
8140;BME280;4111;50.972;7.072;2022-09-20T04:28:29;101703.13;;;12.31;100.00
8140;BME280;4111;50.972;7.072;2022-09-20T04:31:05;101694.94;;;12.31;100.00
8140;BME280;4111;50.972;7.072;2022-09-20T04:33:42;101696.72;;;12.37;100.00
8140;BME280;4111;50.972;7.072;2022-09-20T04:36:29;101704.53;;;12.45;100.00
8140;BME280;4111;50.972;7.072;2022-09-20T04:39:19;101711.66;;;12.46;100.00
8140;BME280;4111;50.972;7.072;2022-09-20T04:44:58;101711.06;;;12.44;100.00
8140;BME280;4111;50.972;7.072;2022-09-20T04:47:46;101712.00;;;12.38;100.00
8140;BME280;4111;50.972;7.072;2022-09-20T04:59:49;101714.81;;;12.32;100.00
8140;BME280;4111;50.972;7.072;2022-09-20T05:08:22;101728.09;;;12.40;100.00
8140;BME280;4111;50.972;7.072;2022-09-20T05:25:49;101729.06;;;12.45;100.00
8140;BME280;4111;50.972;7.072;2022-09-20T05:31:36;101743.63;;;12.39;100.00
8140;BME280;4111;50.972;7.072;2022-09-20T05:34:33;101741.97;;;12.38;100.00
8140;BME280;4111;50.972;7.072;2022-09-20T05:40:21;101748.13;;;12.45;100.00
8140;BME280;4111;50.972;7.072;2022-09-20T05:42:55;101753.13;;;12.48;100.00
8140;BME280;4111;50.972;7.072;2022-09-20T05:45:46;101748.03;;;12.52;100.00
8140;BME280;4111;50.972;7.072;2022-09-20T05:48:23;101747.78;;;12.54;100.00
8140;BME280;4111;50.972;7.072;2022-09-20T05:51:00;101750.50;;;12.54;100.00
8140;BME280;4111;50.972;7.072;2022-09-20T05:53:56;101753.81;;;12.56;100.00
8140;BME280;4111;50.972;7.072;2022-09-20T06:02:19;101754.78;;;12.73;100.00
8140;BME280;4111;50.972;7.072;2022-09-20T06:08:00;101758.84;;;12.82;100.00
8140;BME280;4111;50.972;7.072;2022-09-20T06:10:35;101755.50;;;12.80;100.00
8140;BME280;4111;50.972;7.072;2022-09-20T06:16:00;101757.88;;;12.88;100.00
8140;BME280;4111;50.972;7.072;2022-09-20T06:18:37;101758.34;;;12.85;100.00
8140;BME280;4111;50.972;7.072;2022-09-20T06:24:25;101762.88;;;12.92;100.00
8140;BME280;4111;50.972;7.072;2022-09-20T06:26:56;101764.06;;;12.96;100.00
8140;BME280;4111;50.972;7.072;2022-09-20T06:29:29;101758.00;;;12.94;100.00
8140;BME280;4111;50.972;7.072;2022-09-20T06:31:58;101761.44;;;13.01;100.00
8140;BME280;4111;50.972;7.072;2022-09-20T06:34:24;101768.56;;;13.02;100.00
8140;BME280;4111;50.972;7.072;2022-09-20T06:43:18;101774.69;;;13.09;100.00
8140;BME280;4111;50.972;7.072;2022-09-20T06:45:44;101779.22;;;13.15;100.00
8140;BME280;4111;50.972;7.072;2022-09-20T06:48:11;101773.28;;;13.18;100.00
8140;BME280;4111;50.972;7.072;2022-09-20T06:50:41;101776.13;;;13.23;100.00
8140;BME280;4111;50.972;7.072;2022-09-20T06:53:14;101774.81;;;13.26;100.00
8140;BME280;4111;50.972;7.072;2022-09-20T06:55:43;101775.19;;;13.29;100.00
8140;BME280;4111;50.972;7.072;2022-09-20T06:58:10;101777.19;;;13.34;100.00
8140;BME280;4111;50.972;7.072;2022-09-20T07:00:37;101782.53;;;13.41;100.00
8140;BME280;4111;50.972;7.072;2022-09-20T07:03:05;101777.69;;;13.43;100.00
8140;BME280;4111;50.972;7.072;2022-09-20T07:05:32;101777.41;;;13.44;100.00
8140;BME280;4111;50.972;7.072;2022-09-20T07:07:59;101777.75;;;13.48;100.00
8140;BME280;4111;50.972;7.072;2022-09-20T07:10:27;101780.72;;;13.46;100.00
8140;BME280;4111;50.972;7.072;2022-09-20T07:12:57;101786.75;;;13.60;100.00
8140;BME280;4111;50.972;7.072;2022-09-20T07:15:27;101785.31;;;13.69;100.00
8140;BME280;4111;50.972;7.072;2022-09-20T07:17:54;101785.44;;;13.75;100.00
8140;BME280;4111;50.972;7.072;2022-09-20T07:20:21;101793.00;;;13.84;100.00
8140;BME280;4111;50.972;7.072;2022-09-20T07:22:48;101796.16;;;13.93;99.36
8140;BME280;4111;50.972;7.072;2022-09-20T07:25:15;101794.13;;;14.00;98.71
8140;BME280;4111;50.972;7.072;2022-09-20T07:27:44;101805.41;;;14.21;97.90
8140;BME280;4111;50.972;7.072;2022-09-20T07:30:13;101800.19;;;14.19;96.50
8140;BME280;4111;50.972;7.072;2022-09-20T07:32:40;101796.53;;;14.14;95.79
8140;BME280;4111;50.972;7.072;2022-09-20T07:35:10;101793.72;;;14.08;95.82
8140;BME280;4111;50.972;7.072;2022-09-20T07:37:37;101795.56;;;14.20;95.57
8140;BME280;4111;50.972;7.072;2022-09-20T07:40:08;101802.63;;;14.33;95.47
8140;BME280;4111;50.972;7.072;2022-09-20T07:42:35;101797.78;;;14.52;94.87
8140;BME280;4111;50.972;7.072;2022-09-20T07:45:02;101803.56;;;14.55;94.13
8140;BME280;4111;50.972;7.072;2022-09-20T07:47:29;101802.13;;;14.81;93.57
8140;BME280;4111;50.972;7.072;2022-09-20T07:49:57;101802.59;;;14.78;92.54
8140;BME280;4111;50.972;7.072;2022-09-20T07:52:23;101808.56;;;14.92;92.35
8140;BME280;4111;50.972;7.072;2022-09-20T07:54:50;101807.31;;;15.00;91.73
8140;BME280;4111;50.972;7.072;2022-09-20T07:57:16;101814.53;;;15.06;90.75
8140;BME280;4111;50.972;7.072;2022-09-20T07:59:42;101805.06;;;14.97;90.52
8140;BME280;4111;50.972;7.072;2022-09-20T08:02:13;101819.66;;;15.02;89.90
8140;BME280;4111;50.972;7.072;2022-09-20T08:04:40;101811.44;;;15.19;89.48
8140;BME280;4111;50.972;7.072;2022-09-20T08:07:06;101815.47;;;15.34;89.28
8140;BME280;4111;50.972;7.072;2022-09-20T08:09:33;101812.50;;;15.35;89.39
8140;BME280;4111;50.972;7.072;2022-09-20T08:11:59;101803.50;;;15.40;88.17
8140;BME280;4111;50.972;7.072;2022-09-20T08:14:46;101811.44;;;15.58;87.10
8140;BME280;4111;50.972;7.072;2022-09-20T08:17:13;101812.47;;;15.52;85.39
8140;BME280;4111;50.972;7.072;2022-09-20T08:19:39;101810.53;;;15.53;84.62
8140;BME280;4111;50.972;7.072;2022-09-20T08:22:05;101813.59;;;15.56;84.30
8140;BME280;4111;50.972;7.072;2022-09-20T08:24:32;101817.41;;;15.55;84.32
8140;BME280;4111;50.972;7.072;2022-09-20T08:26:58;101813.72;;;15.44;83.81
8140;BME280;4111;50.972;7.072;2022-09-20T08:29:24;101817.72;;;15.37;83.60
8140;BME280;4111;50.972;7.072;2022-09-20T08:31:51;101820.59;;;15.47;83.71
8140;BME280;4111;50.972;7.072;2022-09-20T08:34:18;101816.50;;;15.50;82.73
8140;BME280;4111;50.972;7.072;2022-09-20T08:36:45;101823.41;;;15.52;83.31
8140;BME280;4111;50.972;7.072;2022-09-20T08:39:13;101822.44;;;15.63;82.66
8140;BME280;4111;50.972;7.072;2022-09-20T08:42:29;101820.09;;;15.72;82.51
8140;BME280;4111;50.972;7.072;2022-09-20T08:45:11;101826.16;;;15.52;81.13
8140;BME280;4111;50.972;7.072;2022-09-20T08:47:52;101822.31;;;15.53;80.53
8140;BME280;4111;50.972;7.072;2022-09-20T08:50:24;101826.56;;;15.44;80.65
8140;BME280;4111;50.972;7.072;2022-09-20T08:52:54;101832.34;;;15.47;80.68
8140;BME280;4111;50.972;7.072;2022-09-20T08:55:27;101825.56;;;15.50;79.98
8140;BME280;4111;50.972;7.072;2022-09-20T08:58:02;101823.00;;;15.65;80.11
8140;BME280;4111;50.972;7.072;2022-09-20T09:00:35;101815.78;;;15.54;78.96
8140;BME280;4111;50.972;7.072;2022-09-20T09:03:05;101823.13;;;15.54;79.20
8140;BME280;4111;50.972;7.072;2022-09-20T09:05:36;101817.50;;;15.60;79.29
8140;BME280;4111;50.972;7.072;2022-09-20T09:08:13;101823.47;;;15.57;77.69
8140;BME280;4111;50.972;7.072;2022-09-20T09:10:45;101821.25;;;15.54;78.01
8140;BME280;4111;50.972;7.072;2022-09-20T09:13:22;101815.56;;;15.61;78.29
8140;BME280;4111;50.972;7.072;2022-09-20T09:15:58;101813.72;;;15.66;77.91
8140;BME280;4111;50.972;7.072;2022-09-20T09:18:31;101816.34;;;15.56;76.83
8140;BME280;4111;50.972;7.072;2022-09-20T09:20:58;101816.75;;;15.48;76.00
8140;BME280;4111;50.972;7.072;2022-09-20T09:23:26;101817.41;;;15.55;76.92
8140;BME280;4111;50.972;7.072;2022-09-20T09:25:53;101820.81;;;15.62;76.89
8140;BME280;4111;50.972;7.072;2022-09-20T09:28:24;101818.38;;;15.66;76.88
8140;BME280;4111;50.972;7.072;2022-09-20T09:30:50;101821.94;;;15.66;78.20
8140;BME280;4111;50.972;7.072;2022-09-20T09:33:24;101816.91;;;15.58;76.41
8140;BME280;4111;50.972;7.072;2022-09-20T09:38:30;101826.06;;;15.47;77.42
8140;BME280;4111;50.972;7.072;2022-09-20T09:40:59;101828.22;;;15.45;78.21
8140;BME280;4111;50.972;7.072;2022-09-20T09:43:34;101826.38;;;15.29;78.53
8140;BME280;4111;50.972;7.072;2022-09-20T09:46:22;101829.59;;;15.25;79.96
8140;BME280;4111;50.972;7.072;2022-09-20T09:49:17;101841.03;;;15.22;80.77
8140;BME280;4111;50.972;7.072;2022-09-20T09:52:13;101836.59;;;14.99;80.56
8140;BME280;4111;50.972;7.072;2022-09-20T09:54:45;101841.72;;;14.96;81.25
8140;BME280;4111;50.972;7.072;2022-09-20T10:06:16;101849.50;;;14.41;83.81
8140;BME280;4111;50.972;7.072;2022-09-20T10:09:14;101840.81;;;14.44;84.25
8140;BME280;4111;50.972;7.072;2022-09-20T10:11:58;101840.97;;;14.38;84.63
8140;BME280;4111;50.972;7.072;2022-09-20T10:17:46;101839.19;;;14.15;85.63
8140;BME280;4111;50.972;7.072;2022-09-20T10:20:39;101841.13;;;14.02;86.47
8140;BME280;4111;50.972;7.072;2022-09-20T10:26:19;101830.97;;;14.15;87.59
8140;BME280;4111;50.972;7.072;2022-09-20T10:34:37;101830.06;;;14.55;86.95
8140;BME280;4111;50.972;7.072;2022-09-20T10:37:32;101826.81;;;14.70;86.79
8140;BME280;4111;50.972;7.072;2022-09-20T10:40:25;101828.13;;;14.84;86.81
8140;BME280;4111;50.972;7.072;2022-09-20T10:43:22;101825.31;;;14.96;86.41
8140;BME280;4111;50.972;7.072;2022-09-20T10:49:19;101816.34;;;15.17;85.80
8140;BME280;4111;50.972;7.072;2022-09-20T10:52:21;101817.00;;;15.24;85.08
8140;BME280;4111;50.972;7.072;2022-09-20T10:57:54;101814.75;;;15.21;83.44
8140;BME280;4111;50.972;7.072;2022-09-20T11:00:52;101817.00;;;15.24;83.53
8140;BME280;4111;50.972;7.072;2022-09-20T11:06:47;101815.16;;;15.30;82.65
8140;BME280;4111;50.972;7.072;2022-09-20T11:09:22;101824.50;;;15.34;82.40
8140;BME280;4111;50.972;7.072;2022-09-20T11:12:21;101821.59;;;15.41;81.99
8140;BME280;4111;50.972;7.072;2022-09-20T11:15:02;101830.38;;;15.43;80.92
8140;BME280;4111;50.972;7.072;2022-09-20T11:17:37;101827.72;;;15.48;81.40
8140;BME280;4111;50.972;7.072;2022-09-20T11:20:14;101836.81;;;15.54;81.32
8140;BME280;4111;50.972;7.072;2022-09-20T11:22:46;101829.50;;;15.59;81.52
8140;BME280;4111;50.972;7.072;2022-09-20T11:25:18;101831.63;;;15.52;81.03
8140;BME280;4111;50.972;7.072;2022-09-20T11:28:01;101833.69;;;15.45;80.77
8140;BME280;4111;50.972;7.072;2022-09-20T11:30:40;101836.34;;;15.40;80.20
8140;BME280;4111;50.972;7.072;2022-09-20T11:33:21;101839.66;;;15.42;81.16
8140;BME280;4111;50.972;7.072;2022-09-20T11:35:54;101850.03;;;15.40;81.40
8140;BME280;4111;50.972;7.072;2022-09-20T11:38:33;101847.75;;;15.32;81.85
8140;BME280;4111;50.972;7.072;2022-09-20T11:41:26;101850.81;;;15.35;82.35
8140;BME280;4111;50.972;7.072;2022-09-20T11:44:15;101845.34;;;15.35;83.34
8140;BME280;4111;50.972;7.072;2022-09-20T11:46:49;101846.66;;;15.33;85.02
8140;BME280;4111;50.972;7.072;2022-09-20T11:49:22;101842.84;;;15.34;84.81
8140;BME280;4111;50.972;7.072;2022-09-20T11:55:07;101852.16;;;15.33;83.85
8140;BME280;4111;50.972;7.072;2022-09-20T11:57:37;101851.25;;;15.27;83.22
8140;BME280;4111;50.972;7.072;2022-09-20T12:00:05;101859.13;;;15.23;81.49
8140;BME280;4111;50.972;7.072;2022-09-20T12:02:36;101860.44;;;15.21;81.40
8140;BME280;4111;50.972;7.072;2022-09-20T12:05:05;101851.97;;;15.22;80.81
8140;BME280;4111;50.972;7.072;2022-09-20T12:07:39;101855.31;;;15.24;81.19
8140;BME280;4111;50.972;7.072;2022-09-20T12:10:24;101861.28;;;15.21;80.64
8140;BME280;4111;50.972;7.072;2022-09-20T12:13:02;101855.38;;;15.30;81.34
8140;BME280;4111;50.972;7.072;2022-09-20T12:15:37;101853.88;;;15.39;81.22
8140;BME280;4111;50.972;7.072;2022-09-20T12:18:26;101854.44;;;15.41;80.24
8140;BME280;4111;50.972;7.072;2022-09-20T12:26:38;101861.22;;;15.55;77.60
8140;BME280;4111;50.972;7.072;2022-09-20T12:32:00;101852.66;;;15.52;76.45
8140;BME280;4111;50.972;7.072;2022-09-20T12:34:33;101857.97;;;15.58;76.45
8140;BME280;4111;50.972;7.072;2022-09-20T12:39:28;101844.38;;;15.85;75.48
8140;BME280;4111;50.972;7.072;2022-09-20T12:44:31;101848.91;;;15.97;73.49
8140;BME280;4111;50.972;7.072;2022-09-20T12:47:15;101845.28;;;15.91;72.19
8140;BME280;4111;50.972;7.072;2022-09-20T12:52:35;101835.13;;;16.14;72.27
8140;BME280;4111;50.972;7.072;2022-09-20T12:55:52;101835.88;;;16.31;71.76
8140;BME280;4111;50.972;7.072;2022-09-20T12:58:49;101832.75;;;16.50;71.33
8140;BME280;4111;50.972;7.072;2022-09-20T13:03:49;101838.25;;;16.50;68.18
8140;BME280;4111;50.972;7.072;2022-09-20T13:11:44;101834.28;;;16.68;66.84
8140;BME280;4111;50.972;7.072;2022-09-20T13:14:30;101827.53;;;16.80;66.30
8140;BME280;4111;50.972;7.072;2022-09-20T13:17:23;101830.47;;;17.01;65.86
8140;BME280;4111;50.972;7.072;2022-09-20T13:19:51;101830.22;;;17.02;65.00
8140;BME280;4111;50.972;7.072;2022-09-20T13:22:24;101829.88;;;16.94;64.39
8140;BME280;4111;50.972;7.072;2022-09-20T13:24:56;101823.47;;;16.83;64.26
8140;BME280;4111;50.972;7.072;2022-09-20T13:27:27;101828.63;;;16.79;65.08
8140;BME280;4111;50.972;7.072;2022-09-20T13:30:07;101835.09;;;16.68;64.97
8140;BME280;4111;50.972;7.072;2022-09-20T13:32:35;101834.78;;;16.64;66.33
8140;BME280;4111;50.972;7.072;2022-09-20T13:37:37;101834.69;;;16.49;67.28
8140;BME280;4111;50.972;7.072;2022-09-20T13:40:05;101839.03;;;16.45;67.74
8140;BME280;4111;50.972;7.072;2022-09-20T13:42:32;101841.78;;;16.45;68.40
8140;BME280;4111;50.972;7.072;2022-09-20T13:45:03;101837.25;;;16.34;68.79
8140;BME280;4111;50.972;7.072;2022-09-20T13:47:30;101839.06;;;16.23;69.07
8140;BME280;4111;50.972;7.072;2022-09-20T13:50:28;101836.78;;;16.15;69.47
8140;BME280;4111;50.972;7.072;2022-09-20T13:52:57;101842.38;;;16.25;70.18
8140;BME280;4111;50.972;7.072;2022-09-20T13:55:34;101836.31;;;16.23;70.13
8140;BME280;4111;50.972;7.072;2022-09-20T13:58:03;101837.63;;;16.15;69.89
8140;BME280;4111;50.972;7.072;2022-09-20T14:00:31;101839.59;;;16.20;69.62
8140;BME280;4111;50.972;7.072;2022-09-20T14:02:58;101834.94;;;16.20;69.57
8140;BME280;4111;50.972;7.072;2022-09-20T14:05:27;101828.50;;;16.37;69.78
8140;BME280;4111;50.972;7.072;2022-09-20T14:07:55;101827.78;;;16.46;69.63
8140;BME280;4111;50.972;7.072;2022-09-20T14:10:33;101827.13;;;16.66;69.81
8140;BME280;4111;50.972;7.072;2022-09-20T14:13:04;101823.09;;;16.74;69.53
8140;BME280;4111;50.972;7.072;2022-09-20T14:15:35;101822.19;;;16.91;69.88
8140;BME280;4111;50.972;7.072;2022-09-20T14:18:04;101819.75;;;16.99;69.02
8140;BME280;4111;50.972;7.072;2022-09-20T14:20:32;101813.84;;;17.18;68.99
8140;BME280;4111;50.972;7.072;2022-09-20T14:22:59;101811.53;;;17.42;68.63
8140;BME280;4111;50.972;7.072;2022-09-20T14:25:26;101804.41;;;17.51;68.15
8140;BME280;4111;50.972;7.072;2022-09-20T14:28:06;101813.31;;;17.74;67.75
8140;BME280;4111;50.972;7.072;2022-09-20T14:30:41;101819.09;;;17.82;66.79
8140;BME280;4111;50.972;7.072;2022-09-20T14:33:14;101818.66;;;18.01;66.31
8140;BME280;4111;50.972;7.072;2022-09-20T14:35:49;101812.91;;;18.08;65.75
8140;BME280;4111;50.972;7.072;2022-09-20T14:38:23;101809.63;;;18.26;65.69
8140;BME280;4111;50.972;7.072;2022-09-20T14:40:51;101802.22;;;18.42;65.22
8140;BME280;4111;50.972;7.072;2022-09-20T14:43:24;101810.22;;;18.54;64.63
8140;BME280;4111;50.972;7.072;2022-09-20T14:45:57;101801.69;;;18.50;64.33
8140;BME280;4111;50.972;7.072;2022-09-20T14:56:36;101799.53;;;18.88;62.71
8140;BME280;4111;50.972;7.072;2022-09-20T14:59:05;101802.53;;;18.97;62.62
8140;BME280;4111;50.972;7.072;2022-09-20T15:01:34;101808.88;;;18.56;62.09
8140;BME280;4111;50.972;7.072;2022-09-20T15:04:07;101804.44;;;18.50;62.46
8140;BME280;4111;50.972;7.072;2022-09-20T15:06:37;101803.63;;;18.60;63.41
8140;BME280;4111;50.972;7.072;2022-09-20T15:09:10;101812.97;;;18.64;62.69
8140;BME280;4111;50.972;7.072;2022-09-20T15:11:38;101806.38;;;18.50;62.21
8140;BME280;4111;50.972;7.072;2022-09-20T15:14:06;101806.34;;;18.34;61.61
8140;BME280;4111;50.972;7.072;2022-09-20T15:16:33;101809.09;;;18.29;62.50
8140;BME280;4111;50.972;7.072;2022-09-20T15:18:59;101804.69;;;18.13;61.71
8140;BME280;4111;50.972;7.072;2022-09-20T15:21:26;101794.78;;;18.17;62.14
8140;BME280;4111;50.972;7.072;2022-09-20T15:23:52;101797.78;;;18.05;62.70
8140;BME280;4111;50.972;7.072;2022-09-20T15:26:20;101803.28;;;18.05;62.78
8140;BME280;4111;50.972;7.072;2022-09-20T15:28:47;101809.03;;;17.98;62.91
8140;BME280;4111;50.972;7.072;2022-09-20T15:31:13;101811.50;;;18.00;63.54
8140;BME280;4111;50.972;7.072;2022-09-20T15:33:42;101807.38;;;17.97;63.44
8140;BME280;4111;50.972;7.072;2022-09-20T15:36:09;101800.78;;;17.93;63.92
8140;BME280;4111;50.972;7.072;2022-09-20T15:38:35;101805.38;;;17.82;63.67
8140;BME280;4111;50.972;7.072;2022-09-20T15:41:02;101798.53;;;17.85;64.06
8140;BME280;4111;50.972;7.072;2022-09-20T15:43:29;101800.47;;;17.84;63.90
8140;BME280;4111;50.972;7.072;2022-09-20T15:46:04;101806.44;;;17.76;63.61
8140;BME280;4111;50.972;7.072;2022-09-20T15:48:41;101799.50;;;17.58;63.31
8140;BME280;4111;50.972;7.072;2022-09-20T15:51:10;101803.34;;;17.57;63.69
8140;BME280;4111;50.972;7.072;2022-09-20T15:53:42;101796.25;;;17.61;64.03
8140;BME280;4111;50.972;7.072;2022-09-20T15:58:59;101795.94;;;17.63;63.77
8140;BME280;4111;50.972;7.072;2022-09-20T16:01:33;101800.31;;;17.54;63.16
8140;BME280;4111;50.972;7.072;2022-09-20T16:06:33;101804.66;;;17.44;63.34
8140;BME280;4111;50.972;7.072;2022-09-20T16:08:59;101803.81;;;17.39;63.40
8140;BME280;4111;50.972;7.072;2022-09-20T16:11:26;101802.63;;;17.24;62.43
8140;BME280;4111;50.972;7.072;2022-09-20T16:13:54;101808.91;;;17.20;63.06
8140;BME280;4111;50.972;7.072;2022-09-20T16:16:21;101801.16;;;17.12;63.20
8140;BME280;4111;50.972;7.072;2022-09-20T16:18:47;101807.72;;;17.05;63.37
8140;BME280;4111;50.972;7.072;2022-09-20T16:21:33;101802.47;;;16.99;63.21
8140;BME280;4111;50.972;7.072;2022-09-20T16:24:01;101809.59;;;17.00;63.72
8140;BME280;4111;50.972;7.072;2022-09-20T16:26:28;101817.81;;;16.95;63.37
8140;BME280;4111;50.972;7.072;2022-09-20T16:28:54;101810.91;;;16.87;64.00
8140;BME280;4111;50.972;7.072;2022-09-20T16:36:38;101821.66;;;16.66;64.63
8140;BME280;4111;50.972;7.072;2022-09-20T16:39:09;101824.94;;;16.63;65.49
8140;BME280;4111;50.972;7.072;2022-09-20T16:41:36;101825.72;;;16.59;65.60
8140;BME280;4111;50.972;7.072;2022-09-20T16:44:04;101828.47;;;16.59;65.54
8140;BME280;4111;50.972;7.072;2022-09-20T16:46:31;101836.69;;;16.59;65.90
8140;BME280;4111;50.972;7.072;2022-09-20T16:49:00;101834.47;;;16.56;66.13
8140;BME280;4111;50.972;7.072;2022-09-20T16:51:29;101838.81;;;16.52;66.70
8140;BME280;4111;50.972;7.072;2022-09-20T16:54:00;101829.34;;;16.37;66.28
8140;BME280;4111;50.972;7.072;2022-09-20T16:56:29;101838.16;;;16.39;66.41
8140;BME280;4111;50.972;7.072;2022-09-20T16:58:56;101838.06;;;16.29;66.73
8140;BME280;4111;50.972;7.072;2022-09-20T17:01:22;101841.84;;;16.28;66.55
8140;BME280;4111;50.972;7.072;2022-09-20T17:03:49;101840.41;;;16.20;66.52
8140;BME280;4111;50.972;7.072;2022-09-20T17:06:15;101837.31;;;16.12;66.60
8140;BME280;4111;50.972;7.072;2022-09-20T17:08:42;101842.31;;;16.20;67.14
8140;BME280;4111;50.972;7.072;2022-09-20T17:11:22;101841.22;;;16.21;67.30
8140;BME280;4111;50.972;7.072;2022-09-20T17:13:52;101852.28;;;16.04;67.03
8140;BME280;4111;50.972;7.072;2022-09-20T17:16:21;101852.59;;;16.08;67.48
8140;BME280;4111;50.972;7.072;2022-09-20T17:18:56;101845.25;;;16.13;67.71
8140;BME280;4111;50.972;7.072;2022-09-20T17:21:24;101853.09;;;16.04;67.21
8140;BME280;4111;50.972;7.072;2022-09-20T17:23:53;101854.69;;;16.00;67.62
8140;BME280;4111;50.972;7.072;2022-09-20T17:26:26;101854.44;;;16.02;67.77